Time;durP1;ratioP1;P1;durP2;ratioP2;P2;SDS_P1;SDS_P2;PMS_P1;PMS_P2;Temp;Humidity;BMP_temperature;BMP_pressure;BME280_temperature;BME280_humidity;BME280_pressure;Samples;Min_cycle;Max_cycle;Signal;HPM_P1;HPM_P2
2023/07/05 00:00:25;;;;;;;4.53;1.77;;;17.70;99.90;;;;;;5074150;28;20170;-84
2023/07/05 00:02:52;;;;;;;2.73;1.20;;;17.60;99.90;;;;;;5075114;28;20228;-83
2023/07/05 00:05:19;;;;;;;2.30;1.40;;;17.50;96.30;;;;;;5074931;28;20214;-84
2023/07/05 00:07:45;;;;;;;2.03;1.07;;;17.50;70.90;;;;;;5088447;28;20461;-83
2023/07/05 00:10:11;;;;;;;2.50;0.90;;;17.40;60.00;;;;;;5096188;28;20193;-82
2023/07/05 00:12:37;;;;;;;3.00;0.93;;;17.30;53.30;;;;;;5096097;28;20188;-82
2023/07/05 00:15:04;;;;;;;1.93;0.90;;;17.30;50.80;;;;;;5092979;28;20753;-83
2023/07/05 00:17:35;;;;;;;2.10;1.00;;;17.30;42.40;;;;;;5095788;28;20176;-81
2023/07/05 00:20:02;;;;;;;1.83;1.10;;;17.20;34.90;;;;;;5089083;28;20225;-84
2023/07/05 00:22:28;;;;;;;1.97;0.97;;;17.20;37.50;;;;;;5074746;28;20199;-83
2023/07/05 00:24:55;;;;;;;1.57;0.90;;;17.10;41.80;;;;;;5075993;28;20204;-84
2023/07/05 00:27:24;;;;;;;4.53;1.10;;;17.00;46.10;;;;;;5077354;28;20637;-83
2023/07/05 00:29:53;;;;;;;1.93;1.00;;;17.10;45.00;;;;;;5080614;28;20649;-82
2023/07/05 00:32:20;;;;;;;1.63;0.90;;;17.00;46.10;;;;;;5093408;28;20208;-83
2023/07/05 00:34:46;;;;;;;2.90;1.00;;;17.00;49.50;;;;;;5081191;28;20261;-84
2023/07/05 00:37:12;;;;;;;2.70;1.30;;;17.00;44.90;;;;;;5075902;28;20218;-85
2023/07/05 00:39:38;;;;;;;2.17;1.20;;;17.10;47.20;;;;;;5074554;28;20180;-83
2023/07/05 00:42:05;;;;;;;1.83;0.90;;;17.00;55.90;;;;;;5079151;28;20165;-78
2023/07/05 00:44:31;;;;;;;1.87;1.00;;;16.90;61.80;;;;;;5094674;28;20222;-84
2023/07/05 00:47:02;;;;;;;2.07;1.20;;;16.80;66.40;;;;;;5094626;28;20165;-83
2023/07/05 00:49:32;;;;;;;2.30;1.47;;;16.70;70.60;;;;;;5097074;28;20173;-85
2023/07/05 00:52:04;;;;;;;3.37;1.60;;;16.70;68.60;;;;;;5098100;28;20152;-82
2023/07/05 00:54:44;;;;;;;2.30;1.60;;;16.60;68.50;;;;;;5094578;28;20206;-82
2023/07/05 00:57:20;;;;;;;2.70;1.90;;;16.50;63.30;;;;;;5093428;28;20232;-83
2023/07/05 00:59:57;;;;;;;3.97;1.90;;;16.40;66.10;;;;;;5096345;28;20172;-82
2023/07/05 01:02:23;;;;;;;4.17;2.20;;;16.30;68.80;;;;;;5087161;28;20203;-84
2023/07/05 01:04:49;;;;;;;3.43;2.10;;;16.20;72.90;;;;;;5080375;28;20219;-84
2023/07/05 01:07:15;;;;;;;3.27;1.73;;;16.10;74.80;;;;;;5063357;28;20177;-82
2023/07/05 01:09:42;;;;;;;4.03;2.30;;;16.00;71.70;;;;;;5078544;28;20176;-86
2023/07/05 01:12:16;;;;;;;4.27;2.23;;;15.90;65.50;;;;;;5077184;28;20231;-84
2023/07/05 01:14:57;;;;;;;6.50;2.60;;;15.80;68.40;;;;;;5076859;28;20663;-84
2023/07/05 01:17:51;;;;;;;6.77;2.97;;;15.80;66.90;;;;;;5079251;28;20169;-83
2023/07/05 01:20:53;;;;;;;6.30;3.00;;;15.70;67.20;;;;;;5076565;28;20183;-84
2023/07/05 01:23:36;;;;;;;5.23;2.90;;;15.70;67.50;;;;;;5074872;28;20264;-84
2023/07/05 01:26:26;;;;;;;3.80;2.40;;;15.60;68.40;;;;;;5075109;28;20220;-83
2023/07/05 01:29:35;;;;;;;4.97;2.93;;;15.70;71.00;;;;;;5074688;28;20582;-83
2023/07/05 01:32:47;;;;;;;4.13;2.70;;;15.60;76.60;;;;;;5075525;28;20164;-84
2023/07/05 01:35:20;;;;;;;5.77;2.80;;;15.50;77.60;;;;;;5024135;28;20691;-85
2023/07/05 01:37:45;;;;;;;5.00;2.87;;;15.60;78.40;;;;;;5077277;28;20168;-84
2023/07/05 01:40:32;;;;;;;5.00;2.90;;;15.50;81.10;;;;;;5079713;28;20171;-83
2023/07/05 01:43:09;;;;;;;5.67;2.67;;;15.50;80.10;;;;;;5077308;28;20180;-84
2023/07/05 01:45:50;;;;;;;6.20;3.03;;;15.50;84.00;;;;;;5079996;28;20186;-85
2023/07/05 01:48:26;;;;;;;6.10;3.13;;;15.40;89.70;;;;;;5076744;28;20646;-84
2023/07/05 01:51:07;;;;;;;6.77;3.03;;;15.40;90.30;;;;;;5073160;28;20202;-84
2023/07/05 01:53:50;;;;;;;10.13;3.50;;;15.40;89.50;;;;;;5073963;28;20647;-83
2023/07/05 01:56:23;;;;;;;5.20;3.00;;;15.40;88.00;;;;;;5072840;28;20172;-84
2023/07/05 01:58:54;;;;;;;5.80;2.90;;;15.40;87.10;;;;;;5072711;28;20253;-83
2023/07/05 02:01:22;;;;;;;5.30;2.70;;;15.40;78.70;;;;;;5074230;28;20152;-85
2023/07/05 02:03:50;;;;;;;8.27;3.30;;;15.30;77.00;;;;;;5071390;28;20211;-83
2023/07/05 02:06:18;;;;;;;6.27;3.07;;;15.30;79.60;;;;;;5071744;28;20172;-85
2023/07/05 02:08:48;;;;;;;6.40;3.07;;;15.30;78.40;;;;;;5072132;28;20186;-83
2023/07/05 02:11:13;;;;;;;7.57;3.83;;;15.30;75.90;;;;;;5072869;28;20201;-84
2023/07/05 02:13:39;;;;;;;6.30;3.53;;;15.40;75.50;;;;;;5072861;28;20179;-84
2023/07/05 02:16:05;;;;;;;6.97;3.80;;;15.40;77.10;;;;;;5071520;28;20202;-85
2023/07/05 02:18:30;;;;;;;5.57;3.83;;;15.30;76.80;;;;;;5072496;28;20168;-85
2023/07/05 02:20:56;;;;;;;8.77;3.87;;;15.30;71.60;;;;;;5072570;28;20188;-85
2023/07/05 02:23:22;;;;;;;5.17;3.43;;;15.30;70.50;;;;;;5076395;28;20200;-85
2023/07/05 02:25:50;;;;;;;5.23;3.50;;;15.30;65.20;;;;;;5077049;28;20191;-84
2023/07/05 02:28:16;;;;;;;6.90;4.17;;;15.30;62.50;;;;;;5075595;28;20174;-86
2023/07/05 02:30:42;;;;;;;6.23;3.70;;;15.20;65.00;;;;;;5075935;28;20184;-83
2023/07/05 02:33:08;;;;;;;7.83;4.40;;;15.20;65.90;;;;;;5076696;28;20218;-84
2023/07/05 02:35:39;;;;;;;6.13;4.07;;;15.40;66.30;;;;;;5081736;28;20195;-83
2023/07/05 02:38:05;;;;;;;8.27;4.30;;;15.30;72.10;;;;;;5096156;28;20167;-83
2023/07/05 02:40:31;;;;;;;7.47;4.10;;;15.20;75.90;;;;;;5096749;28;20228;-85
2023/07/05 02:43:00;;;;;;;8.67;4.73;;;15.20;80.70;;;;;;5096135;28;20233;-85
2023/07/05 02:45:27;;;;;;;7.03;4.27;;;15.30;80.80;;;;;;5096780;28;20191;-84
2023/07/05 02:47:52;;;;;;;9.80;5.07;;;15.20;78.70;;;;;;5096129;28;20163;-84
2023/07/05 02:50:20;;;;;;;7.90;4.90;;;15.20;77.90;;;;;;5096714;28;20182;-84
2023/07/05 02:52:46;;;;;;;8.87;4.23;;;15.20;74.80;;;;;;5097510;28;20167;-84
2023/07/05 02:55:11;;;;;;;7.03;4.60;;;15.10;72.30;;;;;;5097100;28;20227;-84
2023/07/05 02:57:37;;;;;;;7.70;4.50;;;15.10;75.20;;;;;;5096815;28;20167;-83
2023/07/05 03:00:05;;;;;;;7.33;4.53;;;15.10;71.90;;;;;;5096240;28;20179;-85
2023/07/05 03:02:32;;;;;;;6.23;4.10;;;15.10;67.10;;;;;;5096180;28;20172;-85
2023/07/05 03:04:57;;;;;;;7.50;4.77;;;15.10;65.30;;;;;;5096147;28;20225;-83
2023/07/05 03:07:24;;;;;;;6.47;4.50;;;15.10;66.70;;;;;;5096945;28;20163;-83
2023/07/05 03:09:50;;;;;;;6.03;4.50;;;15.10;66.30;;;;;;5096567;28;20623;-84
2023/07/05 03:12:16;;;;;;;7.40;4.30;;;15.00;61.10;;;;;;5097086;28;20226;-83
2023/07/05 03:14:41;;;;;;;6.60;5.03;;;14.90;64.00;;;;;;5094567;28;20175;-83
2023/07/05 03:17:08;;;;;;;7.80;4.97;;;14.90;63.10;;;;;;5098114;28;20193;-82
2023/07/05 03:19:33;;;;;;;9.27;4.57;;;14.90;65.30;;;;;;5099891;28;20256;-86
2023/07/05 03:21:59;;;;;;;7.97;4.97;;;14.90;63.50;;;;;;5098290;28;20210;-83
2023/07/05 03:24:25;;;;;;;7.47;4.57;;;14.90;62.00;;;;;;5103032;28;20229;-85
2023/07/05 03:26:54;;;;;;;8.77;4.87;;;14.90;60.20;;;;;;5103288;28;20190;-83
2023/07/05 03:29:20;;;;;;;8.83;5.17;;;14.90;60.20;;;;;;5103369;28;20236;-85
2023/07/05 03:31:45;;;;;;;6.87;4.63;;;14.90;55.90;;;;;;5095234;28;20199;-84
2023/07/05 03:34:12;;;;;;;6.73;4.23;;;15.00;55.10;;;;;;5095638;28;20176;-84
2023/07/05 03:36:38;;;;;;;8.03;4.40;;;14.90;56.90;;;;;;5095021;28;20171;-85
2023/07/05 03:39:03;;;;;;;7.87;4.30;;;14.80;56.30;;;;;;5096843;28;20200;-84
2023/07/05 03:41:29;;;;;;;7.07;4.47;;;14.60;56.20;;;;;;5095719;28;20654;-85
2023/07/05 03:44:00;;;;;;;11.07;4.90;;;14.90;53.90;;;;;;5094554;28;20215;-84
2023/07/05 03:46:27;;;;;;;8.57;4.97;;;14.90;54.40;;;;;;5097890;28;20163;-85
2023/07/05 03:48:53;;;;;;;6.63;4.47;;;14.80;56.00;;;;;;5096425;28;20186;-84
2023/07/05 03:51:21;;;;;;;8.57;5.03;;;14.90;56.70;;;;;;5103260;28;20195;-84
2023/07/05 03:53:51;;;;;;;6.87;4.27;;;14.90;53.90;;;;;;5107985;28;20233;-82
2023/07/05 03:56:18;;;;;;;6.37;4.10;;;14.90;53.50;;;;;;5118154;28;20172;-82
2023/07/05 03:58:44;;;;;;;7.97;4.23;;;14.90;53.70;;;;;;5115830;28;20166;-82
2023/07/05 04:01:14;;;;;;;5.67;4.17;;;14.80;53.10;;;;;;5117831;28;20151;-83
2023/07/05 04:03:44;;;;;;;9.30;4.37;;;14.80;54.70;;;;;;5107711;28;20307;-84
2023/07/05 04:06:11;;;;;;;7.00;3.93;;;14.80;55.40;;;;;;5096678;28;20176;-84
2023/07/05 04:08:37;;;;;;;8.20;4.30;;;14.90;54.20;;;;;;5095960;28;20164;-83
2023/07/05 04:11:09;;;;;;;7.77;4.10;;;14.90;52.00;;;;;;5095838;28;20222;-84
2023/07/05 04:13:36;;;;;;;6.93;3.97;;;14.70;55.70;;;;;;5094533;28;20183;-84
2023/07/05 04:16:06;;;;;;;6.17;3.80;;;14.80;57.60;;;;;;5095035;28;20168;-85
2023/07/05 04:18:32;;;;;;;9.00;4.00;;;14.70;60.80;;;;;;5107883;28;20167;-83
2023/07/05 04:20:59;;;;;;;6.93;3.87;;;14.70;57.90;;;;;;5118273;28;20158;-84
2023/07/05 04:23:25;;;;;;;8.73;3.40;;;14.70;55.80;;;;;;5109315;28;20298;-84
2023/07/05 04:26:14;;;;;;;6.43;3.50;;;14.70;55.90;;;;;;5101304;28;20686;-85
2023/07/05 04:28:46;;;;;;;5.57;2.83;;;14.60;57.30;;;;;;5094322;28;20190;-83
2023/07/05 04:31:17;;;;;;;5.23;2.63;;;14.60;55.60;;;;;;5094587;28;20632;-85
2023/07/05 04:33:43;;;;;;;6.87;3.30;;;14.70;56.90;;;;;;5093887;28;20179;-85
2023/07/05 04:36:10;;;;;;;7.30;3.17;;;14.70;54.20;;;;;;5094569;28;20210;-84
2023/07/05 04:38:36;;;;;;;9.00;2.80;;;14.70;49.00;;;;;;5094034;28;20273;-84
2023/07/05 04:41:01;;;;;;;6.20;3.30;;;14.70;48.40;;;;;;5093571;28;20203;-85
2023/07/05 04:43:28;;;;;;;8.50;2.93;;;14.70;49.30;;;;;;5094170;28;20203;-85
2023/07/05 04:45:56;;;;;;;6.80;3.13;;;14.70;46.80;;;;;;5077573;28;20268;-86
2023/07/05 04:48:24;;;;;;;7.40;2.80;;;14.70;47.00;;;;;;5094026;28;20201;-85
2023/07/05 04:50:52;;;;;;;9.07;2.80;;;14.60;48.50;;;;;;5094846;28;20260;-85
2023/07/05 04:53:23;;;;;;;7.50;3.10;;;14.70;46.60;;;;;;5093404;28;20239;-84
2023/07/05 04:55:51;;;;;;;8.07;3.13;;;14.80;43.50;;;;;;5093857;28;20262;-85
2023/07/05 04:58:18;;;;;;;7.60;3.00;;;14.60;44.80;;;;;;5095556;28;20254;-83
2023/07/05 05:00:46;;;;;;;9.93;2.93;;;14.80;43.00;;;;;;5095992;28;20187;-85
2023/07/05 05:03:13;;;;;;;7.20;2.77;;;14.80;43.80;;;;;;5095579;28;20195;-86
2023/07/05 05:05:39;;;;;;;7.17;2.73;;;14.70;43.90;;;;;;5096415;28;20167;-85
2023/07/05 05:08:06;;;;;;;6.77;2.90;;;14.80;42.40;;;;;;5077995;28;20176;-84
2023/07/05 05:10:34;;;;;;;6.70;2.70;;;14.80;42.90;;;;;;5095829;28;20188;-85
2023/07/05 05:13:00;;;;;;;8.57;3.30;;;14.80;40.90;;;;;;5095772;28;20167;-85
2023/07/05 05:15:26;;;;;;;8.07;3.10;;;14.80;42.80;;;;;;5097629;28;20174;-84
2023/07/05 05:17:51;;;;;;;5.97;2.57;;;14.80;47.80;;;;;;5096265;28;20199;-84
2023/07/05 05:20:17;;;;;;;7.97;2.50;;;14.60;47.40;;;;;;5099215;28;20242;-85
2023/07/05 05:22:43;;;;;;;7.47;2.50;;;14.70;47.20;;;;;;5103488;28;20178;-82
2023/07/05 05:25:09;;;;;;;6.03;2.50;;;14.60;52.90;;;;;;5101809;28;20211;-84
2023/07/05 05:27:34;;;;;;;7.67;2.70;;;14.60;53.80;;;;;;5097551;28;20187;-84
2023/07/05 05:30:00;;;;;;;7.93;2.73;;;14.60;52.70;;;;;;5093617;28;20624;-84
2023/07/05 05:32:27;;;;;;;8.60;2.83;;;14.60;55.30;;;;;;5095299;28;20170;-83
2023/07/05 05:34:54;;;;;;;6.40;2.43;;;14.60;58.20;;;;;;5076495;28;20211;-85
2023/07/05 05:37:20;;;;;;;6.13;2.43;;;14.70;56.70;;;;;;5076957;28;20168;-85
2023/07/05 05:39:45;;;;;;;8.90;2.77;;;14.60;55.60;;;;;;5073791;28;20179;-85
2023/07/05 05:42:12;;;;;;;5.87;2.20;;;14.60;53.50;;;;;;5075018;28;20186;-85
2023/07/05 05:44:38;;;;;;;8.20;2.40;;;14.60;53.60;;;;;;5075200;28;20211;-86
2023/07/05 05:47:04;;;;;;;7.93;2.60;;;14.60;58.00;;;;;;5075066;28;20179;-86
2023/07/05 05:49:29;;;;;;;5.60;2.40;;;14.60;57.20;;;;;;5077217;28;20275;-84
2023/07/05 05:51:55;;;;;;;7.67;2.87;;;14.60;59.30;;;;;;5078284;28;20225;-86
2023/07/05 05:54:21;;;;;;;4.87;2.73;;;14.60;58.60;;;;;;5075993;28;20202;-85
2023/07/05 05:56:47;;;;;;;7.33;2.60;;;14.70;54.20;;;;;;5078047;28;20172;-87
2023/07/05 05:59:14;;;;;;;7.20;2.83;;;14.80;49.10;;;;;;5079216;28;20178;-86
2023/07/05 06:01:44;;;;;;;3.90;2.10;;;14.80;45.20;;;;;;5079265;28;20172;-86
2023/07/05 06:04:13;;;;;;;7.37;3.07;;;14.90;41.80;;;;;;5077770;28;20208;-85
2023/07/05 06:06:40;;;;;;;5.60;2.60;;;14.90;36.00;;;;;;5077534;28;20218;-86
2023/07/05 06:09:05;;;;;;;6.03;2.60;;;14.90;38.00;;;;;;5079100;28;20226;-85
2023/07/05 06:11:31;;;;;;;4.77;2.50;;;14.80;36.50;;;;;;5079146;28;20214;-84
2023/07/05 06:13:57;;;;;;;6.43;2.97;;;14.90;39.10;;;;;;5098606;28;20167;-85
2023/07/05 06:16:22;;;;;;;5.57;2.50;;;14.90;34.40;;;;;;5097241;28;20239;-87
2023/07/05 06:18:48;;;;;;;4.23;2.13;;;15.10;28.00;;;;;;5098188;28;20176;-86
2023/07/05 06:21:13;;;;;;;5.17;2.30;;;15.10;26.40;;;;;;5098451;28;20653;-86
2023/07/05 06:23:39;;;;;;;6.03;2.47;;;15.10;26.10;;;;;;5097863;28;20202;-84
2023/07/05 06:26:05;;;;;;;5.17;2.43;;;15.20;26.10;;;;;;5096786;28;20289;-86
2023/07/05 06:28:31;;;;;;;5.30;2.30;;;15.30;18.50;;;;;;5098138;28;20176;-84
2023/07/05 06:31:04;;;;;;;6.77;2.20;;;15.40;17.90;;;;;;5096134;28;20561;-86
2023/07/05 06:33:31;;;;;;;6.10;1.93;;;15.40;16.70;;;;;;5097206;28;20166;-86
2023/07/05 06:36:00;;;;;;;3.63;2.20;;;15.50;9.40;;;;;;5100514;28;20160;-85
2023/07/05 06:38:29;;;;;;;8.00;2.40;;;15.50;6.60;;;;;;5101690;28;20156;-89
2023/07/05 06:40:55;;;;;;;6.07;2.00;;;15.70;1.00;;;;;;5083105;28;20184;-87
2023/07/05 06:43:21;;;;;;;4.57;2.10;;;15.70;1.00;;;;;;5098644;28;20186;-87
2023/07/05 06:45:51;;;;;;;4.57;1.93;;;15.90;1.00;;;;;;5097246;28;20186;-88
2023/07/05 06:48:17;;;;;;;6.27;1.97;;;15.90;1.00;;;;;;5098101;28;20654;-86
2023/07/05 06:50:43;;;;;;;5.87;2.43;;;15.80;1.00;;;;;;5098415;28;20180;-86
2023/07/05 06:53:10;;;;;;;5.27;2.30;;;15.80;1.00;;;;;;5098260;28;20167;-84
2023/07/05 06:55:39;;;;;;;6.50;2.40;;;15.80;1.00;;;;;;5097404;28;20239;-83
2023/07/05 06:58:07;;;;;;;3.53;2.10;;;16.00;1.00;;;;;;5098097;28;20160;-85
2023/07/05 07:00:33;;;;;;;5.00;2.00;;;16.10;1.00;;;;;;5097541;28;20164;-85
2023/07/05 07:02:59;;;;;;;5.90;2.23;;;16.30;1.00;;;;;;5096716;28;20307;-86
2023/07/05 07:05:24;;;;;;;5.73;2.70;;;16.20;1.00;;;;;;5097063;28;20315;-88
2023/07/05 07:07:51;;;;;;;5.43;2.40;;;16.30;1.00;;;;;;5097850;28;20175;-89
2023/07/05 07:10:17;;;;;;;6.37;2.40;;;16.40;1.00;;;;;;5095441;28;20178;-85
2023/07/05 07:12:42;;;;;;;6.00;2.60;;;16.30;1.00;;;;;;5096648;28;20230;-87
2023/07/05 07:15:08;;;;;;;5.37;2.40;;;16.40;1.00;;;;;;5096071;28;20168;-85
2023/07/05 07:17:34;;;;;;;4.43;2.33;;;16.40;1.00;;;;;;5099662;28;20225;-88
2023/07/05 07:20:00;;;;;;;6.27;2.10;;;16.40;1.00;;;;;;5118694;28;20260;-86
2023/07/05 07:22:26;;;;;;;7.07;2.40;;;16.50;1.00;;;;;;5110204;28;20177;-84
2023/07/05 07:24:52;;;;;;;6.30;2.23;;;16.50;1.00;;;;;;5113849;28;20223;-85
2023/07/05 07:27:21;;;;;;;7.83;2.53;;;16.50;1.00;;;;;;5104800;28;20175;-85
2023/07/05 07:29:53;;;;;;;6.50;2.00;;;16.40;1.00;;;;;;5098039;28;20172;-87
2023/07/05 07:32:19;;;;;;;7.20;2.40;;;16.40;1.00;;;;;;5096597;28;20168;-87
2023/07/05 07:34:45;;;;;;;5.87;2.43;;;16.60;1.00;;;;;;5096693;28;20172;-87
2023/07/05 07:37:10;;;;;;;5.27;2.20;;;16.50;1.00;;;;;;5096727;28;20181;-87
2023/07/05 07:39:36;;;;;;;7.90;2.70;;;16.60;1.00;;;;;;5097931;28;20643;-87
2023/07/05 07:42:02;;;;;;;4.97;2.03;;;16.40;1.00;;;;;;5108894;28;20258;-83
2023/07/05 07:44:28;;;;;;;6.17;2.10;;;16.50;1.00;;;;;;5119186;28;20255;-85
2023/07/05 07:46:53;;;;;;;8.50;2.03;;;16.60;1.00;;;;;;5118336;28;20179;-85
2023/07/05 07:49:20;;;;;;;6.00;2.17;;;16.60;1.00;;;;;;5118871;28;20227;-85
2023/07/05 07:52:11;;;;;;;4.67;2.07;;;16.60;1.00;;;;;;5103385;28;20166;-87
2023/07/05 07:54:43;;;;;;;10.03;2.27;;;16.70;1.00;;;;;;5098412;28;20632;-87
2023/07/05 07:57:27;;;;;;;6.30;2.20;;;16.90;1.00;;;;;;5108305;28;20161;-87
2023/07/05 07:59:55;;;;;;;5.47;1.87;;;17.10;1.00;;;;;;5099562;28;20168;-86
2023/07/05 08:02:22;;;;;;;7.60;2.03;;;17.10;1.00;;;;;;5101745;28;20237;-86
2023/07/05 08:04:48;;;;;;;6.13;2.00;;;17.20;1.00;;;;;;5106529;28;20246;-85
2023/07/05 08:07:14;;;;;;;5.63;2.10;;;17.10;1.00;;;;;;5105892;28;20583;-86
2023/07/05 08:09:41;;;;;;;7.03;2.13;;;17.20;1.00;;;;;;5104578;28;20168;-83
2023/07/05 08:12:09;;;;;;;6.57;2.30;;;17.30;1.00;;;;;;5087867;28;20289;-85
2023/07/05 08:14:35;;;;;;;9.53;2.33;;;17.20;1.00;;;;;;5105082;28;20183;-87
2023/07/05 08:17:01;;;;;;;6.10;2.07;;;17.40;1.00;;;;;;5102762;28;20162;-88
2023/07/05 08:19:26;;;;;;;6.53;2.00;;;17.30;1.00;;;;;;5084441;28;20305;-83
2023/07/05 08:21:52;;;;;;;8.03;2.17;;;17.40;1.00;;;;;;5102120;28;20172;-86
2023/07/05 08:24:19;;;;;;;7.93;2.30;;;17.50;1.00;;;;;;5101933;28;20207;-85
2023/07/05 08:26:46;;;;;;;7.00;1.93;;;17.70;1.00;;;;;;5102612;28;20209;-86
2023/07/05 08:29:11;;;;;;;5.57;1.83;;;17.70;1.00;;;;;;5103784;28;20177;-86
2023/07/05 08:31:39;;;;;;;4.53;1.50;;;17.70;1.00;;;;;;5103580;28;20640;-85
2023/07/05 08:34:04;;;;;;;5.97;1.60;;;17.70;1.00;;;;;;5103180;28;20194;-84
2023/07/05 08:36:36;;;;;;;7.67;2.10;;;17.80;1.00;;;;;;5100965;28;20178;-82
2023/07/05 08:39:05;;;;;;;3.83;1.77;;;18.00;1.00;;;;;;5100042;28;20171;-87
2023/07/05 08:42:01;;;;;;;7.70;2.20;;;18.00;1.00;;;;;;5100898;28;20159;-84
2023/07/05 08:44:44;;;;;;;6.20;1.80;;;18.10;1.00;;;;;;5100914;28;20200;-86
2023/07/05 08:47:12;;;;;;;5.73;1.80;;;18.30;1.00;;;;;;5101437;28;20173;-86
2023/07/05 08:50:04;;;;;;;8.20;1.93;;;18.20;1.00;;;;;;5100041;28;20167;-88
2023/07/05 08:52:34;;;;;;;5.10;1.60;;;18.10;1.00;;;;;;5100113;28;20185;-85
2023/07/05 08:55:05;;;;;;;6.33;1.73;;;18.10;1.00;;;;;;5084144;28;20169;-83
2023/07/05 08:57:38;;;;;;;9.67;2.13;;;18.20;1.00;;;;;;5101845;28;20170;-85
2023/07/05 09:00:11;;;;;;;7.60;2.07;;;18.10;1.00;;;;;;5104358;28;20172;-83
2023/07/05 09:02:38;;;;;;;5.30;2.00;;;18.20;1.00;;;;;;5105179;28;20199;-84
2023/07/05 09:05:30;;;;;;;7.03;1.80;;;18.30;1.00;;;;;;5107828;28;20268;-87
2023/07/05 09:08:16;;;;;;;8.33;2.63;;;18.40;1.00;;;;;;5104944;28;20167;-85
2023/07/05 09:11:09;;;;;;;4.83;2.03;;;18.50;1.00;;;;;;5106011;28;20178;-85
2023/07/05 09:13:39;;;;;;;6.90;2.03;;;18.50;1.00;;;;;;5104882;28;20253;-87
2023/07/05 09:16:53;;;;;;;5.37;2.07;;;18.50;1.00;;;;;;5098574;28;20344;-85
2023/07/05 09:19:54;;;;;;;9.60;1.90;;;18.50;1.00;;;;;;5084398;28;20202;-87
2023/07/05 09:22:24;;;;;;;6.80;1.70;;;18.70;1.00;;;;;;5094021;28;20301;-87
2023/07/05 09:24:51;;;;;;;5.37;1.90;;;18.70;1.00;;;;;;5096653;28;20233;-87
2023/07/05 09:27:33;;;;;;;5.77;1.90;;;18.70;1.00;;;;;;5098680;28;20255;-86
2023/07/05 09:30:13;;;;;;;8.00;1.80;;;18.60;1.00;;;;;;5094999;28;20171;-89
2023/07/05 09:32:41;;;;;;;7.80;2.47;;;18.40;1.00;;;;;;5096352;28;20294;-86
2023/07/05 09:35:18;;;;;;;7.73;2.27;;;18.40;1.00;;;;;;5097444;28;20218;-85
2023/07/05 09:38:18;;;;;;;8.77;2.27;;;18.70;1.00;;;;;;5102733;28;20955;-87
2023/07/05 09:40:54;;;;;;;8.50;2.57;;;19.00;1.00;;;;;;5105527;28;20197;-86
2023/07/05 09:43:27;;;;;;;5.70;2.10;;;19.00;1.00;;;;;;5106149;28;20197;-85
2023/07/05 09:45:53;;;;;;;7.67;2.00;;;19.20;1.00;;;;;;5096157;28;20183;-87
2023/07/05 09:48:19;;;;;;;6.10;2.27;;;19.10;1.00;;;;;;5096588;28;20182;-86
2023/07/05 09:50:49;;;;;;;7.83;2.67;;;19.30;1.00;;;;;;5096501;28;20178;-86
2023/07/05 09:53:23;;;;;;;6.97;2.33;;;19.20;1.00;;;;;;5097119;28;20602;-88
2023/07/05 09:56:10;;;;;;;6.20;2.03;;;19.20;1.00;;;;;;5097158;28;20186;-87
2023/07/05 09:58:38;;;;;;;6.07;2.20;;;19.30;1.00;;;;;;5098159;28;20246;-87
2023/07/05 10:01:09;;;;;;;6.00;1.80;;;19.30;1.00;;;;;;5096852;28;20743;-87
2023/07/05 10:03:37;;;;;;;7.10;2.23;;;19.20;1.00;;;;;;5095395;28;20250;-87
2023/07/05 10:06:09;;;;;;;4.77;1.90;;;19.10;1.00;;;;;;5097345;28;20175;-88
2023/07/05 10:08:48;;;;;;;4.60;1.60;;;19.20;1.00;;;;;;5095801;28;20205;-87
2023/07/05 10:11:33;;;;;;;6.27;2.00;;;19.40;1.00;;;;;;5098161;28;20198;-86
2023/07/05 10:14:12;;;;;;;7.27;1.97;;;19.50;1.00;;;;;;5098822;28;20526;-86
2023/07/05 10:17:02;;;;;;;5.43;1.97;;;19.60;1.00;;;;;;5109191;28;20200;-88
2023/07/05 10:19:33;;;;;;;9.97;2.50;;;19.80;1.00;;;;;;5096933;28;20165;-87
2023/07/05 10:22:16;;;;;;;8.27;2.00;;;20.00;99.90;;;;;;5097618;28;20280;-87
2023/07/05 10:24:48;;;;;;;5.73;1.73;;;20.00;99.90;;;;;;5095839;28;20199;-88
2023/07/05 10:27:23;;;;;;;6.10;2.07;;;19.70;99.90;;;;;;5096548;28;20237;-87
2023/07/05 10:29:55;;;;;;;7.10;2.20;;;19.60;99.90;;;;;;5098283;28;20183;-84
2023/07/05 10:32:22;;;;;;;7.93;2.47;;;19.60;99.90;;;;;;5095274;28;20231;-84
2023/07/05 10:34:51;;;;;;;5.30;2.03;;;19.80;99.90;;;;;;5097830;28;20178;-87
2023/07/05 10:37:33;;;;;;;5.40;1.93;;;20.00;99.90;;;;;;5098753;28;20148;-87
2023/07/05 10:40:08;;;;;;;6.27;1.97;;;20.10;99.90;;;;;;5105802;28;20187;-86
2023/07/05 10:42:35;;;;;;;5.13;1.70;;;20.50;99.90;;;;;;5114886;28;20163;-87
2023/07/05 10:45:03;;;;;;;4.30;2.03;;;20.40;99.40;;;;;;5104193;28;20209;-87
2023/07/05 10:47:31;;;;;;;5.07;1.97;;;20.20;99.90;;;;;;5111205;28;20163;-84
2023/07/05 10:50:05;;;;;;;4.97;1.97;;;19.90;99.90;;;;;;5096361;28;20182;-84
2023/07/05 10:52:36;;;;;;;5.67;2.00;;;19.80;99.90;;;;;;5105826;28;20170;-86
2023/07/05 10:55:19;;;;;;;7.40;1.80;;;19.90;99.90;;;;;;5104033;28;20205;-85
2023/07/05 10:57:52;;;;;;;5.77;1.83;;;19.90;99.90;;;;;;5101589;28;20517;-86
2023/07/05 11:00:23;;;;;;;4.83;1.70;;;19.90;99.90;;;;;;5102340;28;20161;-87
2023/07/05 11:02:56;;;;;;;5.50;1.77;;;20.10;99.90;;;;;;5100588;28;20201;-86
2023/07/05 11:05:39;;;;;;;4.17;1.60;;;20.30;99.90;;;;;;5091600;28;20266;-86
2023/07/05 11:08:20;;;;;;;4.30;1.70;;;20.20;99.90;;;;;;5115435;28;20266;-85
2023/07/05 11:10:48;;;;;;;3.57;1.33;;;20.40;99.90;;;;;;5115149;28;20202;-83
2023/07/05 11:13:17;;;;;;;4.43;1.57;;;20.30;99.90;;;;;;5115340;28;20217;-83
2023/07/05 11:15:45;;;;;;;6.13;1.60;;;20.40;72.30;;;;;;5116657;28;20230;-86
2023/07/05 11:18:21;;;;;;;5.13;1.93;;;20.70;1.00;;;;;;5117282;28;20220;-86
2023/07/05 11:20:50;;;;;;;6.73;2.27;;;20.40;1.00;;;;;;5113825;28;20194;-86
2023/07/05 11:23:44;;;;;;;6.17;2.20;;;20.40;1.00;;;;;;5105095;28;20183;-87
2023/07/05 11:26:11;;;;;;;6.80;2.10;;;20.30;1.00;;;;;;5102513;28;20193;-85
2023/07/05 11:28:42;;;;;;;5.70;2.00;;;20.20;1.00;;;;;;5106872;28;20268;-85
2023/07/05 11:31:29;;;;;;;5.00;2.00;;;20.10;1.00;;;;;;5107425;28;20170;-86
2023/07/05 11:34:20;;;;;;;3.90;1.83;;;20.20;1.00;;;;;;5103447;28;20684;-85
2023/07/05 11:36:51;;;;;;;6.10;2.20;;;20.30;1.00;;;;;;5106140;28;20180;-86
2023/07/05 11:39:36;;;;;;;5.57;2.00;;;20.40;1.00;;;;;;5105663;28;20241;-86
2023/07/05 11:42:17;;;;;;;4.67;1.83;;;20.30;1.00;;;;;;5105279;28;20203;-85
2023/07/05 11:44:47;;;;;;;5.23;2.00;;;19.70;1.00;;;;;;5104239;28;20237;-86
2023/07/05 11:47:21;;;;;;;7.27;2.10;;;19.80;1.00;;;;;;5107334;28;20192;-84
2023/07/05 11:49:55;;;;;;;3.97;1.83;;;20.10;1.00;;;;;;5108444;28;20176;-84
2023/07/05 11:52:27;;;;;;;4.90;1.90;;;20.40;1.00;;;;;;5107326;28;20270;-86
2023/07/05 11:55:10;;;;;;;8.40;2.10;;;20.60;1.00;;;;;;5101811;28;20643;-87
2023/07/05 11:57:42;;;;;;;5.27;2.27;;;20.50;1.00;;;;;;5104595;28;20175;-86
2023/07/05 12:00:26;;;;;;;6.93;2.33;;;20.30;1.00;;;;;;5101935;28;20305;-86
2023/07/05 12:03:04;;;;;;;8.23;2.83;;;20.30;1.00;;;;;;5108253;28;20200;-86
2023/07/05 12:05:32;;;;;;;5.00;2.30;;;20.20;1.00;;;;;;5105754;28;20275;-85
2023/07/05 12:08:15;;;;;;;5.13;2.17;;;19.90;1.00;;;;;;5106242;28;20172;-85
2023/07/05 12:10:51;;;;;;;5.80;2.30;;;19.80;1.00;;;;;;5103452;28;20742;-85
2023/07/05 12:13:23;;;;;;;8.90;3.20;;;19.80;1.00;;;;;;5109598;28;20156;-82
2023/07/05 12:15:49;;;;;;;7.43;3.50;;;19.70;1.00;;;;;;5109128;28;20179;-86
2023/07/05 12:18:17;;;;;;;8.17;3.97;;;20.00;1.00;;;;;;5104344;28;20239;-87
2023/07/05 12:20:48;;;;;;;7.13;3.30;;;20.20;1.00;;;;;;5109119;28;20180;-86
2023/07/05 12:23:17;;;;;;;8.07;4.07;;;20.30;1.00;;;;;;5100353;28;20223;-85
2023/07/05 12:26:04;;;;;;;9.13;3.53;;;20.20;1.00;;;;;;5098732;28;20221;-86
2023/07/05 12:28:33;;;;;;;5.47;2.43;;;20.20;1.00;;;;;;5104148;28;20724;-86
2023/07/05 12:31:06;;;;;;;5.83;2.80;;;20.10;1.00;;;;;;5114059;28;20203;-86
2023/07/05 12:33:36;;;;;;;6.87;3.10;;;20.00;1.00;;;;;;5116524;28;20172;-86
2023/07/05 12:36:13;;;;;;;5.27;2.83;;;20.10;1.00;;;;;;5116012;28;20214;-83
2023/07/05 12:38:41;;;;;;;5.07;2.77;;;20.20;1.00;;;;;;5115027;28;20191;-84
2023/07/05 12:41:14;;;;;;;8.03;3.33;;;20.30;1.00;;;;;;5114036;28;20164;-86
2023/07/05 12:43:42;;;;;;;6.87;2.97;;;20.20;1.00;;;;;;5115550;28;20189;-84
2023/07/05 12:46:17;;;;;;;9.10;5.13;;;20.30;1.00;;;;;;5112711;28;20171;-85
2023/07/05 12:48:42;;;;;;;8.40;3.37;;;20.20;1.00;;;;;;5109150;28;20183;-84
2023/07/05 12:51:19;;;;;;;6.70;3.03;;;20.40;1.00;;;;;;5109628;28;20236;-85
2023/07/05 12:53:58;;;;;;;8.23;2.60;;;20.40;1.00;;;;;;5111190;28;20195;-85
2023/07/05 12:56:36;;;;;;;6.10;2.70;;;20.40;1.00;;;;;;5110221;28;20396;-86
2023/07/05 12:59:06;;;;;;;6.57;2.33;;;20.20;1.00;;;;;;5108131;28;20159;-85
2023/07/05 13:01:35;;;;;;;6.67;2.53;;;20.30;1.00;;;;;;5102659;28;20267;-87
2023/07/05 13:04:13;;;;;;;7.07;3.10;;;20.50;1.00;;;;;;5099282;28;20195;-86
2023/07/05 13:06:40;;;;;;;7.53;3.30;;;20.60;1.00;;;;;;5098682;28;20250;-86
2023/07/05 13:09:07;;;;;;;5.20;2.13;;;20.80;1.00;;;;;;5097253;28;20167;-87